Time;durP1;ratioP1;P1;durP2;ratioP2;P2;SDS_P1;SDS_P2;PMS_P1;PMS_P2;Temp;Humidity;BMP_temperature;BMP_pressure;BME280_temperature;BME280_humidity;BME280_pressure;Samples;Min_cycle;Max_cycle;Signal;HPM_P1;HPM_P2
2023/04/10 00:00:08;;;;;;;39.47;29.15;;;8.50;36.60;;;;;;5018187;28;20421;-65
2023/04/10 00:02:36;;;;;;;40.45;30.38;;;8.40;44.30;;;;;;5019023;28;20049;-66
2023/04/10 00:05:02;;;;;;;39.15;30.35;;;8.40;50.40;;;;;;5022122;28;20472;-65
2023/04/10 00:07:27;;;;;;;41.17;31.17;;;8.30;65.40;;;;;;5018539;28;20325;-65
2023/04/10 00:09:53;;;;;;;41.88;30.75;;;8.30;74.30;;;;;;5012994;28;20100;-65
2023/04/10 00:12:19;;;;;;;38.85;29.00;;;8.20;83.50;;;;;;5025172;28;21262;-66
2023/04/10 00:14:45;;;;;;;42.30;32.63;;;8.20;90.90;;;;;;5020392;28;20037;-65
2023/04/10 00:17:11;;;;;;;41.65;31.55;;;8.20;96.80;;;;;;5014917;28;20068;-66
2023/04/10 00:19:36;;;;;;;42.55;32.50;;;8.20;95.50;;;;;;5019485;28;20050;-65
2023/04/10 00:22:03;;;;;;;42.17;31.33;;;8.10;99.90;;;;;;5021164;28;20050;-66
2023/04/10 00:24:29;;;;;;;44.40;31.60;;;8.10;96.40;;;;;;5020612;28;20336;-65
2023/04/10 00:26:56;;;;;;;43.58;31.80;;;8.20;96.10;;;;;;5015546;28;20042;-65
2023/04/10 00:29:22;;;;;;;43.78;32.65;;;8.20;95.10;;;;;;5039274;28;20045;-65
2023/04/10 00:31:48;;;;;;;45.40;33.17;;;8.10;95.00;;;;;;5020332;28;20495;-65
2023/04/10 00:34:14;;;;;;;44.63;33.00;;;8.10;98.00;;;;;;5020763;28;20094;-67
2023/04/10 00:36:40;;;;;;;45.25;33.63;;;8.00;99.40;;;;;;5019883;28;20040;-66
2023/04/10 00:39:07;;;;;;;47.45;34.03;;;8.00;99.90;;;;;;5030368;28;20044;-66
2023/04/10 00:41:33;;;;;;;47.40;34.78;;;7.90;99.90;;;;;;5018950;28;20329;-66
2023/04/10 00:44:00;;;;;;;47.95;35.92;;;7.80;99.90;;;;;;5039019;28;20077;-66
2023/04/10 00:46:26;;;;;;;48.53;36.05;;;7.70;99.90;;;;;;5018260;28;20143;-66
2023/04/10 00:48:55;;;;;;;50.15;35.13;;;7.60;99.90;;;;;;5002285;28;21567;-65
2023/04/10 00:51:21;;;;;;;50.97;37.17;;;7.50;99.90;;;;;;5019996;28;20908;-65
2023/04/10 00:53:51;;;;;;;48.58;34.75;;;7.40;99.90;;;;;;5014657;28;20045;-66
2023/04/10 00:56:18;;;;;;;50.45;35.38;;;7.40;99.90;;;;;;5020862;28;20694;-65
2023/04/10 00:58:44;;;;;;;47.47;34.10;;;7.40;99.90;;;;;;5019915;28;20075;-66
2023/04/10 01:01:10;;;;;;;48.75;35.35;;;7.30;99.90;;;;;;5020869;28;20124;-64
2023/04/10 01:03:38;;;;;;;50.97;36.08;;;7.30;99.90;;;;;;5014138;28;20036;-65
2023/04/10 01:06:38;;;;;;;49.75;35.42;;;7.30;99.90;;;;;;5001626;28;20446;-66
2023/04/10 01:09:32;;;;;;;48.92;35.47;;;7.30;99.90;;;;;;5038097;28;20045;-67
2023/04/10 01:12:10;;;;;;;50.03;36.55;;;7.20;99.90;;;;;;5039333;28;20573;-64
2023/04/10 01:15:11;;;;;;;50.97;38.17;;;7.30;99.90;;;;;;5018570;28;20060;-65
2023/04/10 01:17:52;;;;;;;49.92;38.20;;;7.30;99.90;;;;;;5019823;28;20083;-66
2023/04/10 01:20:23;;;;;;;49.78;38.13;;;7.20;99.90;;;;;;5019937;28;20116;-65
2023/04/10 01:23:17;;;;;;;50.80;39.20;;;7.30;99.90;;;;;;5019462;28;20199;-64
2023/04/10 01:25:51;;;;;;;49.78;36.35;;;7.20;99.90;;;;;;5020025;28;20053;-65
2023/04/10 01:28:25;;;;;;;48.55;37.58;;;7.20;99.90;;;;;;5020392;28;20108;-65
2023/04/10 01:30:56;;;;;;;50.30;37.90;;;7.30;99.90;;;;;;5019617;28;20029;-65
2023/04/10 01:33:27;;;;;;;50.10;39.42;;;7.20;99.90;;;;;;5017509;28;20509;-64
2023/04/10 01:35:57;;;;;;;55.72;38.42;;;7.30;99.90;;;;;;5019310;28;20033;-65
2023/04/10 01:38:26;;;;;;;51.03;37.72;;;7.20;99.90;;;;;;5027365;28;20446;-64
2023/04/10 01:40:54;;;;;;;47.22;37.70;;;7.20;99.90;;;;;;5027578;28;20037;-64
2023/04/10 01:43:21;;;;;;;49.88;36.85;;;7.20;99.90;;;;;;5016957;28;20085;-66
2023/04/10 01:45:50;;;;;;;49.00;36.75;;;7.10;99.90;;;;;;5017100;28;20033;-65
2023/04/10 01:48:17;;;;;;;47.17;36.70;;;7.20;99.90;;;;;;5016820;28;20107;-64
2023/04/10 01:50:45;;;;;;;46.63;36.60;;;7.30;99.90;;;;;;5004867;28;20136;-68
2023/04/10 01:53:12;;;;;;;49.30;36.60;;;7.30;99.90;;;;;;5033382;28;20446;-66
2023/04/10 01:55:38;;;;;;;47.63;36.45;;;7.40;99.90;;;;;;5025548;28;20037;-66
2023/04/10 01:58:05;;;;;;;48.60;36.88;;;7.40;99.90;;;;;;5030688;28;20132;-66
2023/04/10 02:00:37;;;;;;;46.78;36.30;;;7.40;99.90;;;;;;5011775;28;20068;-65
2023/04/10 02:03:03;;;;;;;48.92;36.25;;;7.30;99.90;;;;;;5018597;28;20053;-65
2023/04/10 02:05:45;;;;;;;47.47;37.28;;;7.30;99.90;;;;;;5003322;28;20045;-66
2023/04/10 02:08:29;;;;;;;47.35;35.75;;;7.20;99.90;;;;;;5011540;28;20270;-65
2023/04/10 02:11:06;;;;;;;46.28;35.58;;;7.20;99.90;;;;;;5018984;28;20237;-66
2023/04/10 02:13:34;;;;;;;45.92;35.60;;;7.20;99.90;;;;;;5019784;28;20048;-65
2023/04/10 02:16:03;;;;;;;45.65;35.20;;;7.20;99.90;;;;;;5015304;28;20410;-66
2023/04/10 02:18:32;;;;;;;44.72;34.83;;;7.20;99.90;;;;;;5026758;28;20053;-65
2023/04/10 02:20:58;;;;;;;43.85;35.05;;;7.30;99.90;;;;;;5014043;28;20115;-65
2023/04/10 02:23:24;;;;;;;44.10;35.08;;;7.20;99.90;;;;;;4993980;28;20045;-64
2023/04/10 02:25:50;;;;;;;43.42;33.45;;;7.20;99.90;;;;;;5026822;28;20044;-65
2023/04/10 02:28:15;;;;;;;41.45;34.30;;;7.20;99.90;;;;;;5015254;28;20045;-64
2023/04/10 02:30:41;;;;;;;44.17;34.22;;;7.20;99.90;;;;;;5010176;28;20098;-65
2023/04/10 02:33:07;;;;;;;44.75;34.58;;;7.20;99.90;;;;;;5010579;28;20079;-65
2023/04/10 02:35:33;;;;;;;43.58;34.22;;;7.20;99.90;;;;;;5017027;28;21004;-65
2023/04/10 02:37:59;;;;;;;42.42;32.58;;;7.10;99.90;;;;;;5026486;28;20041;-64
2023/04/10 02:40:25;;;;;;;43.88;33.05;;;7.10;99.90;;;;;;5018716;28;20040;-64
2023/04/10 02:42:51;;;;;;;42.55;34.10;;;7.20;99.90;;;;;;5017638;28;20048;-64
2023/04/10 02:45:16;;;;;;;44.60;33.38;;;7.20;99.90;;;;;;5021394;28;20073;-64
2023/04/10 02:47:42;;;;;;;43.67;33.40;;;7.20;99.90;;;;;;5010584;28;20301;-65
2023/04/10 02:50:08;;;;;;;40.28;33.13;;;7.20;99.90;;;;;;5018344;28;20045;-65
2023/04/10 02:52:34;;;;;;;41.55;32.78;;;7.10;99.90;;;;;;5004027;28;20049;-64
2023/04/10 02:55:00;;;;;;;40.88;33.10;;;7.10;99.90;;;;;;5015064;28;20045;-64
2023/04/10 02:57:27;;;;;;;41.47;32.78;;;7.10;99.90;;;;;;5009927;28;20346;-64
2023/04/10 02:59:53;;;;;;;42.05;33.35;;;7.10;99.90;;;;;;5016926;28;20064;-64
2023/04/10 03:02:20;;;;;;;43.95;33.55;;;7.10;99.90;;;;;;5017701;28;20345;-64
2023/04/10 03:04:46;;;;;;;41.35;34.17;;;7.00;99.90;;;;;;5015998;28;20041;-65
2023/04/10 03:07:12;;;;;;;41.05;33.65;;;7.00;99.90;;;;;;5014571;28;20047;-65
2023/04/10 03:09:38;;;;;;;41.83;31.90;;;7.00;99.90;;;;;;5012762;28;20033;-65
2023/04/10 03:12:04;;;;;;;44.75;33.60;;;7.00;99.90;;;;;;5004221;28;20049;-66
2023/04/10 03:14:30;;;;;;;42.03;33.33;;;7.00;99.90;;;;;;5015990;28;20045;-63
2023/04/10 03:16:56;;;;;;;44.47;32.08;;;7.00;99.90;;;;;;5014042;28;20570;-65
2023/04/10 03:19:21;;;;;;;42.78;31.65;;;7.00;99.90;;;;;;5011887;28;20558;-64
2023/04/10 03:21:47;;;;;;;44.60;34.78;;;7.00;99.90;;;;;;5026172;28;20053;-65
2023/04/10 03:24:13;;;;;;;40.05;30.45;;;7.10;99.90;;;;;;5001734;28;20033;-65
2023/04/10 03:26:38;;;;;;;44.25;32.70;;;7.10;99.90;;;;;;5012478;28;20119;-64
2023/04/10 03:29:04;;;;;;;42.38;32.58;;;7.10;99.90;;;;;;5026690;28;20664;-64
2023/04/10 03:31:30;;;;;;;43.72;33.25;;;7.10;99.90;;;;;;5013826;28;20060;-65
2023/04/10 03:33:56;;;;;;;45.65;33.60;;;7.10;99.90;;;;;;5016362;28;20045;-65
2023/04/10 03:36:21;;;;;;;42.90;32.90;;;7.10;99.90;;;;;;5016568;28;20068;-65
2023/04/10 03:38:47;;;;;;;44.78;33.47;;;7.10;99.90;;;;;;5007134;28;20113;-63
2023/04/10 03:41:13;;;;;;;43.80;33.22;;;7.00;99.90;;;;;;5020541;28;20260;-64
2023/04/10 03:43:39;;;;;;;45.15;34.28;;;7.00;99.90;;;;;;5019355;28;20033;-65
2023/04/10 03:46:05;;;;;;;44.38;32.78;;;7.00;99.90;;;;;;5019440;28;20103;-65
2023/04/10 03:48:32;;;;;;;44.55;34.33;;;7.00;99.90;;;;;;4996645;28;20048;-65
2023/04/10 03:50:57;;;;;;;43.28;34.58;;;6.90;99.90;;;;;;5018430;28;20411;-65
2023/04/10 03:53:24;;;;;;;43.83;34.58;;;6.90;99.90;;;;;;4996180;28;20665;-64
2023/04/10 03:55:51;;;;;;;45.47;35.30;;;6.90;99.90;;;;;;5019458;28;20030;-64
2023/04/10 03:58:17;;;;;;;45.42;33.35;;;6.80;99.90;;;;;;5018860;28;20053;-64
2023/04/10 04:00:44;;;;;;;42.97;34.17;;;6.80;99.90;;;;;;5018912;28;20123;-64
2023/04/10 04:03:10;;;;;;;46.63;34.80;;;6.80;99.90;;;;;;5018884;28;20049;-64
2023/04/10 04:05:37;;;;;;;45.03;34.70;;;6.70;99.90;;;;;;5020295;28;20094;-65
2023/04/10 04:08:05;;;;;;;45.47;35.40;;;6.80;99.90;;;;;;5017657;28;20178;-66
2023/04/10 04:10:32;;;;;;;46.70;33.80;;;6.70;99.90;;;;;;5014080;28;20052;-65
2023/04/10 04:12:57;;;;;;;46.38;35.30;;;6.70;99.90;;;;;;5016462;28;20519;-65
2023/04/10 04:15:23;;;;;;;46.88;34.50;;;6.70;99.90;;;;;;4999971;28;20121;-64
2023/04/10 04:17:49;;;;;;;46.60;35.30;;;6.70;99.90;;;;;;5010095;28;20407;-65
2023/04/10 04:20:15;;;;;;;46.33;32.60;;;6.60;99.90;;;;;;5015961;28;20287;-65
2023/04/10 04:22:41;;;;;;;45.28;30.35;;;6.70;99.90;;;;;;5013172;28;20049;-65
2023/04/10 04:25:09;;;;;;;46.72;31.92;;;6.60;99.90;;;;;;5002384;28;20106;-64
2023/04/10 04:27:35;;;;;;;41.45;30.63;;;6.50;99.90;;;;;;5019734;28;20114;-64
2023/04/10 04:30:02;;;;;;;44.05;31.00;;;6.50;99.90;;;;;;5016314;28;20041;-65
2023/04/10 04:32:28;;;;;;;43.20;29.70;;;6.50;99.90;;;;;;5017722;28;20069;-65
2023/04/10 04:34:53;;;;;;;45.80;29.02;;;6.50;99.90;;;;;;5017089;28;20428;-64
2023/04/10 04:37:19;;;;;;;45.42;29.23;;;6.50;99.90;;;;;;5012003;28;20049;-64
2023/04/10 04:39:45;;;;;;;41.35;28.40;;;6.50;99.90;;;;;;5017602;28;20044;-65
2023/04/10 04:42:11;;;;;;;41.15;29.17;;;6.60;99.90;;;;;;5011216;28;20345;-65
2023/04/10 04:44:36;;;;;;;42.38;29.38;;;6.60;99.90;;;;;;5016523;28;20056;-64
2023/04/10 04:47:02;;;;;;;41.70;28.63;;;6.60;99.90;;;;;;5012428;28;20049;-64
2023/04/10 04:49:28;;;;;;;43.00;30.60;;;6.60;99.90;;;;;;5027663;28;20037;-65
2023/04/10 04:51:53;;;;;;;46.72;32.85;;;6.60;99.90;;;;;;5012027;28;20104;-65
2023/04/10 04:54:19;;;;;;;47.75;31.92;;;6.60;99.90;;;;;;5011843;28;20349;-65
2023/04/10 04:56:45;;;;;;;45.85;32.17;;;6.60;99.90;;;;;;5016647;28;20037;-65
2023/04/10 04:59:10;;;;;;;45.60;32.10;;;6.60;99.90;;;;;;5029455;28;20037;-67
2023/04/10 05:01:36;;;;;;;42.75;31.15;;;6.60;99.90;;;;;;5011698;28;20101;-65
2023/04/10 05:04:02;;;;;;;45.63;30.08;;;6.60;99.90;;;;;;4999050;28;20554;-65
2023/04/10 05:06:28;;;;;;;43.95;31.65;;;6.60;99.90;;;;;;5011442;28;20064;-66
2023/04/10 05:08:54;;;;;;;45.00;29.35;;;6.50;99.90;;;;;;5016302;28;20044;-66
2023/04/10 05:11:19;;;;;;;41.47;27.30;;;6.60;99.90;;;;;;5009866;28;20099;-67
2023/04/10 05:13:45;;;;;;;44.38;31.20;;;6.60;99.90;;;;;;5004401;28;20087;-66
2023/04/10 05:16:11;;;;;;;40.13;28.42;;;6.60;99.90;;;;;;5010180;28;20040;-66
2023/04/10 05:18:37;;;;;;;46.67;34.03;;;6.60;99.90;;;;;;5025024;28;20048;-66
2023/04/10 05:21:03;;;;;;;45.20;35.05;;;6.70;99.90;;;;;;5015641;28;20057;-67
2023/04/10 05:23:28;;;;;;;48.53;32.50;;;6.70;99.90;;;;;;5019591;28;20791;-67
2023/04/10 05:25:54;;;;;;;44.97;30.70;;;6.80;99.90;;;;;;5027534;28;20098;-65
2023/04/10 05:28:20;;;;;;;45.70;30.50;;;6.80;99.90;;;;;;5016904;28;20482;-65
2023/04/10 05:30:46;;;;;;;42.75;29.48;;;6.90;99.90;;;;;;5019937;28;20041;-65
2023/04/10 05:33:12;;;;;;;44.47;30.85;;;6.90;99.90;;;;;;5021485;28;20045;-69
2023/04/10 05:35:38;;;;;;;44.88;31.13;;;7.00;99.90;;;;;;5014949;28;20043;-65
2023/04/10 05:38:03;;;;;;;42.80;30.17;;;7.00;99.90;;;;;;5002044;28;20202;-65
2023/04/10 05:40:30;;;;;;;45.08;31.55;;;7.10;99.90;;;;;;4998037;28;20115;-65
2023/04/10 05:42:56;;;;;;;42.17;29.83;;;7.20;99.90;;;;;;5001919;28;20057;-65
2023/04/10 05:45:22;;;;;;;45.88;34.30;;;7.20;99.90;;;;;;5021266;28;20132;-67
2023/04/10 05:47:47;;;;;;;44.90;33.53;;;7.30;99.90;;;;;;5011527;28;20520;-65
2023/04/10 05:50:13;;;;;;;44.17;33.97;;;7.30;99.90;;;;;;5016953;28;20571;-67
2023/04/10 05:52:39;;;;;;;45.85;33.80;;;7.50;99.90;;;;;;5014618;28;20281;-66
2023/04/10 05:55:05;;;;;;;44.95;32.83;;;7.50;99.90;;;;;;5014247;28;20056;-65
2023/04/10 05:57:31;;;;;;;47.80;36.08;;;7.60;99.90;;;;;;5013828;28;20037;-66
2023/04/10 05:59:56;;;;;;;47.30;34.67;;;7.70;99.90;;;;;;5014314;28;20137;-66
2023/04/10 06:02:23;;;;;;;45.25;32.83;;;7.70;99.90;;;;;;5014603;28;20087;-65
2023/04/10 06:04:50;;;;;;;41.30;31.73;;;7.80;99.90;;;;;;5014953;28;20052;-66
2023/04/10 06:07:15;;;;;;;47.90;33.00;;;7.90;99.90;;;;;;5015445;28;20114;-67
2023/04/10 06:09:41;;;;;;;42.67;31.20;;;8.00;99.90;;;;;;5023789;28;20479;-66
2023/04/10 06:12:08;;;;;;;44.45;33.08;;;8.00;99.90;;;;;;5013942;28;20071;-66
2023/04/10 06:14:34;;;;;;;43.88;33.45;;;8.10;99.90;;;;;;5006292;28;20037;-66
2023/04/10 06:17:00;;;;;;;43.40;33.00;;;8.10;99.90;;;;;;5014431;28;20045;-67
2023/04/10 06:19:26;;;;;;;44.92;31.55;;;8.20;99.90;;;;;;5011022;28;20523;-66
2023/04/10 06:21:52;;;;;;;45.05;34.33;;;8.20;99.90;;;;;;5025053;28;21359;-66
2023/04/10 06:24:18;;;;;;;44.67;32.45;;;8.30;99.90;;;;;;5013110;28;20045;-65
2023/04/10 06:26:44;;;;;;;44.20;33.28;;;8.30;99.90;;;;;;4994908;28;20065;-67
2023/04/10 06:29:10;;;;;;;41.80;32.40;;;8.40;99.90;;;;;;5013871;28;20689;-66
2023/04/10 06:31:36;;;;;;;41.80;31.60;;;8.50;99.90;;;;;;5002541;28;20077;-66
2023/04/10 06:34:01;;;;;;;40.60;32.95;;;8.60;99.90;;;;;;5012344;28;20203;-67
2023/04/10 06:36:27;;;;;;;40.97;32.05;;;8.80;99.90;;;;;;5014217;28;20245;-65
2023/04/10 06:38:53;;;;;;;40.78;32.55;;;9.10;99.90;;;;;;5013864;28;20524;-67
2023/04/10 06:41:19;;;;;;;40.25;31.95;;;9.30;99.90;;;;;;5015317;28;20045;-66
2023/04/10 06:43:45;;;;;;;41.25;32.38;;;9.60;99.90;;;;;;5013994;28;20052;-66
2023/04/10 06:46:11;;;;;;;39.35;30.20;;;9.90;99.90;;;;;;5008415;28;20045;-65
2023/04/10 06:48:37;;;;;;;38.15;31.60;;;10.10;99.90;;;;;;5016419;28;20044;-65
2023/04/10 06:51:03;;;;;;;39.97;31.92;;;10.20;90.30;;;;;;5015858;28;20037;-66
2023/04/10 06:53:29;;;;;;;40.75;31.98;;;10.30;48.80;;;;;;5016229;28;20571;-65
2023/04/10 06:55:55;;;;;;;39.55;31.48;;;10.30;23.80;;;;;;5018505;28;20045;-65
2023/04/10 06:58:21;;;;;;;41.08;31.10;;;10.30;23.90;;;;;;5010201;28;20079;-65
2023/04/10 07:00:47;;;;;;;37.25;29.95;;;10.20;1.00;;;;;;5014741;28;20336;-66
2023/04/10 07:03:12;;;;;;;40.83;31.08;;;10.20;16.90;;;;;;5027329;28;20049;-64
2023/04/10 07:05:38;;;;;;;40.50;32.53;;;10.10;1.00;;;;;;5019637;28;20045;-66
2023/04/10 07:08:04;;;;;;;42.00;31.58;;;10.10;4.40;;;;;;5019404;28;20521;-65
2023/04/10 07:10:30;;;;;;;41.00;29.38;;;10.20;13.90;;;;;;5013634;28;20273;-65
2023/04/10 07:12:57;;;;;;;41.15;30.38;;;10.20;7.60;;;;;;5020305;28;20041;-66
2023/04/10 07:15:23;;;;;;;39.13;30.65;;;10.20;12.10;;;;;;5018939;28;20057;-66
2023/04/10 07:17:49;;;;;;;35.97;28.30;;;10.30;1.00;;;;;;5018417;28;20510;-65
2023/04/10 07:20:15;;;;;;;39.78;31.40;;;10.40;1.00;;;;;;5019658;28;20057;-65
2023/04/10 07:22:40;;;;;;;38.80;30.08;;;10.50;1.00;;;;;;5019142;28;20405;-64
2023/04/10 07:25:07;;;;;;;36.67;30.05;;;10.80;1.00;;;;;;5037986;28;20041;-64
2023/04/10 07:27:33;;;;;;;37.35;28.95;;;11.20;1.00;;;;;;5013030;28;20111;-65
2023/04/10 07:29:58;;;;;;;39.55;31.05;;;11.30;1.00;;;;;;5021609;28;20045;-64
2023/04/10 07:32:24;;;;;;;35.65;29.23;;;11.30;1.00;;;;;;5030109;28;20045;-64
2023/04/10 07:34:50;;;;;;;36.75;29.50;;;11.20;1.00;;;;;;5029389;28;20060;-65
2023/04/10 07:37:16;;;;;;;37.15;29.27;;;11.00;1.00;;;;;;5021777;28;20045;-64
2023/04/10 07:39:43;;;;;;;34.50;26.25;;;10.80;1.00;;;;;;5008093;28;20248;-64
2023/04/10 07:42:12;;;;;;;34.60;27.42;;;10.80;1.00;;;;;;5019836;28;20048;-64
2023/04/10 07:44:38;;;;;;;32.95;24.25;;;11.10;1.00;;;;;;5021308;28;20228;-66
2023/04/10 07:47:03;;;;;;;33.80;27.35;;;11.40;99.90;;;;;;5017648;28;20037;-66
2023/04/10 07:49:29;;;;;;;33.85;26.17;;;11.80;99.90;;;;;;5022185;28;20111;-65
2023/04/10 07:51:55;;;;;;;32.63;26.08;;;12.10;99.90;;;;;;5019387;28;20046;-65
2023/04/10 07:54:21;;;;;;;35.03;27.17;;;12.40;99.90;;;;;;5038171;28;20185;-65
2023/04/10 07:56:46;;;;;;;31.38;25.60;;;12.70;99.90;;;;;;5012300;28;20049;-65
2023/04/10 07:59:12;;;;;;;33.88;26.80;;;12.90;99.90;;;;;;5016354;28;20091;-64
2023/04/10 08:01:38;;;;;;;29.83;25.88;;;12.80;99.90;;;;;;5037004;28;20029;-65
2023/04/10 08:04:04;;;;;;;28.80;24.02;;;13.00;99.90;;;;;;5021100;28;20041;-66
2023/04/10 08:06:31;;;;;;;31.05;25.35;;;13.00;99.90;;;;;;4990569;28;20410;-65
2023/04/10 08:08:56;;;;;;;29.15;23.65;;;13.10;99.90;;;;;;5027809;28;20274;-64
2023/04/10 08:11:30;;;;;;;29.73;23.67;;;13.00;99.90;;;;;;5020680;28;20247;-65
2023/04/10 08:14:00;;;;;;;29.73;24.13;;;13.00;99.90;;;;;;5018622;28;20045;-65
2023/04/10 08:16:29;;;;;;;29.20;23.58;;;13.20;99.90;;;;;;5028848;28;20094;-65
2023/04/10 08:18:56;;;;;;;29.25;24.15;;;13.30;99.90;;;;;;5016807;28;20238;-65
2023/04/10 08:21:23;;;;;;;26.63;23.20;;;13.60;99.90;;;;;;5019217;28;20038;-64
2023/04/10 08:23:53;;;;;;;26.48;22.60;;;13.90;99.90;;;;;;5019170;28;20131;-64
2023/04/10 08:26:20;;;;;;;25.60;22.48;;;14.10;99.90;;;;;;5018749;28;20614;-65
2023/04/10 08:28:50;;;;;;;26.98;21.55;;;14.20;99.90;;;;;;5016872;28;20131;-65
2023/04/10 08:31:19;;;;;;;27.63;22.85;;;14.50;99.90;;;;;;5019798;28;20156;-65
2023/04/10 08:33:45;;;;;;;25.30;22.40;;;14.40;99.90;;;;;;5010958;28;20157;-67
2023/04/10 08:36:12;;;;;;;24.88;20.65;;;14.40;99.90;;;;;;5025846;28;20498;-64
2023/04/10 08:38:41;;;;;;;24.65;20.13;;;14.60;99.90;;;;;;5017333;28;20071;-64
2023/04/10 08:41:15;;;;;;;21.45;18.20;;;14.60;99.90;;;;;;5018513;28;20194;-64
2023/04/10 08:43:42;;;;;;;26.85;18.25;;;14.60;99.90;;;;;;5017498;28;20661;-65
2023/04/10 08:46:10;;;;;;;22.42;18.23;;;14.40;99.90;;;;;;5008419;28;20450;-64
2023/04/10 08:48:51;;;;;;;20.10;16.75;;;14.10;99.90;;;;;;5019045;28;20034;-64
2023/04/10 08:51:19;;;;;;;19.33;16.42;;;13.80;99.90;;;;;;5029521;28;20098;-64
2023/04/10 08:53:50;;;;;;;21.40;17.10;;;13.80;99.90;;;;;;5036697;28;20045;-64
2023/04/10 08:56:17;;;;;;;20.60;15.15;;;13.90;99.90;;;;;;5037538;28;20036;-64
2023/04/10 08:58:44;;;;;;;19.80;16.42;;;14.20;99.90;;;;;;5000588;28;20041;-65
2023/04/10 09:01:12;;;;;;;19.05;16.30;;;14.70;99.90;;;;;;5017737;28;20038;-65
2023/04/10 09:03:38;;;;;;;19.30;15.95;;;15.00;99.90;;;;;;5020280;28;20084;-65
2023/04/10 09:06:07;;;;;;;19.25;15.52;;;15.10;99.90;;;;;;5017795;28;20183;-65
2023/04/10 09:08:33;;;;;;;19.92;16.65;;;15.20;99.90;;;;;;5037764;28;20053;-64
2023/04/10 09:10:59;;;;;;;17.65;15.00;;;15.40;99.90;;;;;;5016044;28;20319;-64
2023/04/10 09:13:40;;;;;;;18.10;14.85;;;15.60;99.90;;;;;;5021442;28;20040;-65
2023/04/10 09:16:06;;;;;;;16.25;14.55;;;15.60;99.90;;;;;;5008004;28;20468;-64
2023/04/10 09:18:50;;;;;;;17.88;14.55;;;15.60;99.90;;;;;;5011669;28;20377;-64
2023/04/10 09:21:17;;;;;;;;;;;15.40;99.90;;;;;;5018904;28;20229;-63
2023/04/10 09:23:43;;;;;;;17.33;14.50;;;15.30;99.90;;;;;;5017834;28;20298;-66
2023/04/10 09:26:28;;;;;;;15.75;12.65;;;15.50;99.90;;;;;;5011705;28;20045;-64
2023/04/10 09:29:01;;;;;;;16.83;13.70;;;15.40;99.90;;;;;;5018034;28;20044;-64
2023/04/10 09:31:35;;;;;;;16.05;14.30;;;15.50;99.90;;;;;;4999963;28;20057;-65
2023/04/10 09:34:20;;;;;;;15.15;13.55;;;15.40;99.90;;;;;;5018692;28;20032;-64
2023/04/10 09:36:54;;;;;;;13.63;11.68;;;15.30;99.90;;;;;;5032949;28;20045;-65
2023/04/10 09:39:20;;;;;;;13.80;12.32;;;15.30;99.90;;;;;;5016370;28;20098;-66
2023/04/10 09:41:56;;;;;;;15.40;13.80;;;15.10;99.90;;;;;;5030856;28;20041;-66
2023/04/10 09:44:33;;;;;;;14.93;12.70;;;15.20;99.90;;;;;;5030375;28;20398;-66
2023/04/10 09:47:15;;;;;;;13.95;11.98;;;15.30;99.90;;;;;;5030650;28;20052;-66
2023/04/10 09:49:49;;;;;;;13.48;11.52;;;15.40;99.90;;;;;;5014494;28;20135;-67
2023/04/10 09:52:27;;;;;;;14.57;12.70;;;15.50;99.90;;;;;;5030766;28;20140;-65
2023/04/10 09:55:01;;;;;;;14.65;12.75;;;15.50;99.90;;;;;;5030385;28;20068;-65
2023/04/10 09:57:32;;;;;;;14.65;12.35;;;15.30;99.90;;;;;;5031005;28;20396;-67
2023/04/10 09:59:59;;;;;;;12.40;11.10;;;15.10;99.90;;;;;;5032242;28;20466;-67
2023/04/10 10:02:28;;;;;;;13.68;11.55;;;15.20;99.90;;;;;;5030780;28;20626;-67
2023/04/10 10:04:54;;;;;;;13.32;11.02;;;15.20;99.90;;;;;;5030600;28;20526;-66
2023/04/10 10:07:22;;;;;;;15.02;11.27;;;15.30;99.90;;;;;;5031884;28;20045;-66
2023/04/10 10:09:49;;;;;;;11.63;10.25;;;15.60;99.90;;;;;;5031073;28;20076;-66
2023/04/10 10:12:22;;;;;;;11.85;9.63;;;15.80;99.90;;;;;;5030077;28;20288;-65
2023/04/10 10:15:07;;;;;;;13.38;10.43;;;16.00;99.90;;;;;;5030291;28;20072;-66
2023/04/10 10:18:02;;;;;;;10.27;9.15;;;15.90;99.90;;;;;;5014311;28;20098;-67
2023/04/10 10:20:31;;;;;;;10.65;9.55;;;15.90;99.90;;;;;;4995311;28;20052;-66
2023/04/10 10:23:01;;;;;;;12.73;10.57;;;15.90;99.90;;;;;;5013771;28;20972;-65
2023/04/10 10:25:27;;;;;;;10.35;9.35;;;16.10;99.90;;;;;;5031898;28;20134;-66
2023/04/10 10:27:54;;;;;;;12.73;10.25;;;16.30;99.90;;;;;;5030150;28;20045;-66
2023/04/10 10:30:21;;;;;;;11.68;10.48;;;16.60;99.90;;;;;;5030045;28;20055;-67
2023/04/10 10:32:48;;;;;;;13.00;9.23;;;16.70;99.90;;;;;;5013818;28;20083;-68
2023/04/10 10:35:15;;;;;;;11.52;10.32;;;16.80;99.90;;;;;;5030044;28;20041;-66
2023/04/10 10:37:44;;;;;;;10.73;8.70;;;16.80;99.90;;;;;;5031369;28;20324;-66
2023/04/10 10:40:32;;;;;;;10.77;9.65;;;16.80;99.90;;;;;;5012017;28;20057;-66
2023/04/10 10:43:17;;;;;;;11.07;9.07;;;17.00;99.90;;;;;;5031531;28;20583;-65
2023/04/10 10:45:52;;;;;;;10.27;8.50;;;16.90;99.90;;;;;;5030875;28;20053;-67
2023/04/10 10:48:18;;;;;;;11.60;9.40;;;16.80;99.90;;;;;;5030632;28;20538;-67
2023/04/10 10:50:55;;;;;;;13.10;10.27;;;16.60;99.90;;;;;;5013863;28;20063;-66
2023/04/10 10:53:42;;;;;;;11.23;10.02;;;16.60;99.90;;;;;;5030179;28;20053;-67
2023/04/10 10:56:34;;;;;;;12.63;8.90;;;16.50;99.90;;;;;;5030241;28;20063;-67
2023/04/10 10:59:00;;;;;;;11.20;9.88;;;16.40;99.90;;;;;;5010744;28;20057;-67
2023/04/10 11:01:27;;;;;;;12.02;9.85;;;16.50;99.90;;;;;;5031034;28;20519;-67
2023/04/10 11:03:53;;;;;;;10.85;9.65;;;16.30;99.90;;;;;;5014176;28;20045;-66
2023/04/10 11:06:20;;;;;;;10.57;9.48;;;16.40;99.90;;;;;;5030010;28;20037;-66
2023/04/10 11:08:53;;;;;;;10.65;8.52;;;16.20;99.90;;;;;;5030983;28;20068;-66
2023/04/10 11:11:22;;;;;;;11.15;9.88;;;16.10;99.90;;;;;;5029965;28;20045;-66
2023/04/10 11:13:56;;;;;;;9.77;7.88;;;16.00;99.90;;;;;;5013947;28;20365;-66
2023/04/10 11:16:39;;;;;;;10.90;9.13;;;16.10;99.90;;;;;;5013923;28;20072;-65
2023/04/10 11:19:12;;;;;;;10.95;9.73;;;16.10;99.90;;;;;;5032286;28;20080;-65
2023/04/10 11:22:04;;;;;;;11.13;9.02;;;16.10;99.90;;;;;;5014251;28;20057;-65
2023/04/10 11:24:59;;;;;;;8.95;7.07;;;16.30;99.90;;;;;;5032781;28;20052;-65
2023/04/10 11:27:47;;;;;;;9.98;7.63;;;16.30;99.90;;;;;;5034129;28;20152;-64
2023/04/10 11:30:29;;;;;;;9.52;8.27;;;16.20;99.90;;;;;;5032364;28;20041;-64
2023/04/10 11:32:55;;;;;;;8.70;7.63;;;16.30;99.90;;;;;;5015485;28;20045;-64
2023/04/10 11:35:21;;;;;;;8.05;6.50;;;16.30;99.90;;;;;;5032325;28;20041;-65
2023/04/10 11:37:47;;;;;;;8.43;7.60;;;16.40;99.90;;;;;;5033529;28;20127;-66
2023/04/10 11:40:13;;;;;;;8.50;6.70;;;16.30;99.90;;;;;;5048329;28;20109;-65
2023/04/10 11:42:39;;;;;;;8.23;7.35;;;16.30;99.90;;;;;;5033779;28;20510;-66
2023/04/10 11:45:27;;;;;;;7.80;6.97;;;16.40;99.90;;;;;;5032395;28;20071;-64
2023/04/10 11:47:54;;;;;;;7.65;6.72;;;16.50;99.90;;;;;;5031702;28;20075;-65
2023/04/10 11:50:20;;;;;;;8.35;7.40;;;16.30;99.90;;;;;;5014481;28;20033;-65
2023/04/10 11:52:55;;;;;;;8.50;7.60;;;16.40;99.90;;;;;;4998138;28;20601;-66
2023/04/10 11:55:37;;;;;;;8.38;6.60;;;16.40;99.90;;;;;;5014658;28;20049;-65
2023/04/10 11:58:02;;;;;;;7.78;6.40;;;16.40;99.90;;;;;;5016878;28;20391;-64
2023/04/10 12:00:28;;;;;;;8.40;6.85;;;16.40;99.90;;;;;;5033399;28;20052;-65
2023/04/10 12:02:54;;;;;;;7.32;6.63;;;16.30;99.90;;;;;;5013518;28;20497;-65
2023/04/10 12:05:20;;;;;;;7.05;6.10;;;16.30;99.90;;;;;;5014504;28;20052;-64
2023/04/10 12:07:47;;;;;;;6.57;5.90;;;16.30;99.90;;;;;;5014796;28;20471;-66
2023/04/10 12:10:13;;;;;;;7.55;6.75;;;16.30;99.90;;;;;;5014782;28;20491;-65
2023/04/10 12:12:40;;;;;;;6.72;5.88;;;16.30;99.90;;;;;;5030782;28;20050;-64
2023/04/10 12:15:26;;;;;;;6.90;6.20;;;16.40;99.90;;;;;;4998274;28;20041;-66
2023/04/10 12:17:56;;;;;;;6.75;5.15;;;16.50;99.90;;;;;;5034188;28;20752;-66
2023/04/10 12:20:26;;;;;;;5.60;4.47;;;16.40;99.90;;;;;;5034638;28;20099;-64
2023/04/10 12:22:55;;;;;;;5.43;4.85;;;16.40;99.90;;;;;;5014615;28;20057;-65
2023/04/10 12:25:20;;;;;;;6.22;4.80;;;16.40;99.90;;;;;;5032985;28;20041;-66
2023/04/10 12:27:49;;;;;;;4.97;4.47;;;16.50;99.90;;;;;;5034703;28;20107;-65
2023/04/10 12:30:15;;;;;;;6.55;5.32;;;16.70;99.90;;;;;;5033767;28;20191;-66
2023/04/10 12:32:54;;;;;;;7.03;4.88;;;16.80;99.90;;;;;;5028555;28;20048;-66
2023/04/10 12:35:20;;;;;;;5.53;5.03;;;17.00;99.90;;;;;;5032555;28;20049;-65
2023/04/10 12:37:53;;;;;;;5.10;4.32;;;17.00;99.90;;;;;;5034621;28;20599;-64
2023/04/10 12:40:19;;;;;;;5.88;4.78;;;17.20;99.90;;;;;;5029983;28;20033;-66
2023/04/10 12:42:46;;;;;;;3.90;3.50;;;17.60;99.90;;;;;;4997774;28;20045;-66